Muskego, WI (53150)

11:44 AM CST on December 27, 2014 (GMT -0600)
Little Lake Muskego | Change Station
CLOSE
Current Station
Personal Weather Station
Location: Muskego, WI
Elevation: 791 ft
Nearby Weather Stations

Elev 791 ft 42.91 °N, 88.15 °W | Updated 17 seconds ago

Overcast
Overcast
40.1 °F
Feels Like 31 °F
N
19.0
Wind Variable Wind from SW
Gusts 25.1 mph

Today
High -- | Low -- °F
--% Chance of Precip.
Yesterday
High -- | Low -- °F
Precip. -- in
7:22 AM 4:24 PM
Waxing Crescent, 38% visible
Pressure 29.88 in
Visibility 5.0 miles
Clouds Mostly Cloudy 500 ft
Overcast 1000 ft
Windchill 31 °F
Dew Point 38 °F
Humidity 91%
Rainfall 0.02 in
Snow Depth Not available.
UV 1 out of 12
Pollen .10 out of 12
Air Quality Not available.
Flu Activity Not available.
SPECI KUES 271700Z 25018G25KT 5SM BR BKN005 OVC010 05/03 A2988

More Conditions Fewer Conditions

Pressure 29.88 in
Visibility 5.0 miles
Clouds Mostly Cloudy 500 ft
Overcast 1000 ft
Windchill 31 °F
Dew Point 38 °F
Humidity 91%
Rainfall 0.02 in
Snow Depth Not available.
UV 1 out of 12
Pollen .10 out of 12
Air Quality Not available.
Flu Activity Not available.
SPECI KUES 271700Z 25018G25KT 5SM BR BKN005 OVC010 05/03 A2988

More Conditions Fewer Conditions

10-Day Weather Forecast

Almanac

Astronomy

Dec. 27, 2014 Rise Set
Actual Time
Civil Twilight
Nautical Twilight
Astronomical Twilight
Moon
Length of Visible Light
Length of Day
Tomorrow will be .
, % of the Moon is Illuminated

Today's Extremes

State Highs State Lows

Community

WunderPhotos

Upload Photos

1,780,974 photos uploaded!

WunderBlogs® & News

Nearby

Air Quality

  Air Quality AQ Index Pollutant
Not available.

Snow Depth

Station Depth Elevation

Earthquake Activity

City Distance Mag. Time & Date
Minimum magnitude displayed is 2.5.

Coastal Water Temperatures

Place Temperature

Nearby Weather Stations